Cap Castillo — A8PI5 — position and weather

sailwx.info

Track history (hours):
 
Tides and Currents Weather Stations Pressure Air Temp Water Temp Dewpoint Dewpoint Depression Visibility Wind Speed Wind Dir Waves Ship Positions

Cap Castillo

Last reported at 2014-Jul-22 19:00 UTC. Time now 2014-Jul-28 06:24 UTC.
Position N 20°36' W 074°30'.

Length 215 m; draft 7.3 m.

Type: Ship. MMSI: 636091558.

Wind from 120 at 21 knots

Waves 1.0 meters (3 feet), 1 second period

Barometer 1016.0 mb
Air temperature 32.0 ° C
Visibility: greater than 10.8 NM
Dewpoint 30.7 ° C
Water temperature 31.0 ° C

Date/timePositionNaut miles runAvg speedWind from/ knotsBaromVisibWave heightAir tempDewpointWater temp
2014-Jul-22 19:00N 20°36' W 074°30'35514.8 120 / 211016.010.8 1.032.030.731.0
2014-Jul-21 19:00N 24°24' W 079°24'8115.0 180 / 161016.0 5.4 0.529.029.029.0
2014-Jul-21 13:33N 25°43' W 079°43'1615.7
2014-Jul-21 12:33N 25°55' W 079°54'1515.2
2014-Jul-21 11:33N 26°06' W 080°07'1 1.3
2014-Jul-21 10:33N 26°04' W 080°07'0 0.0
2014-Jul-21 09:24N 26°04' W 080°07'0 0.0
2014-Jul-21 08:30N 26°04' W 080°07'0 0.0
2014-Jul-21 07:27N 26°04' W 080°07'0 0.0
2014-Jul-21 06:27N 26°04' W 080°07'0 0.0
2014-Jul-21 05:30N 26°04' W 080°07'0 0.0
2014-Jul-21 04:30N 26°04' W 080°07'0 0.0
2014-Jul-21 03:30N 26°04' W 080°07'0 0.0
2014-Jul-21 02:33N 26°04' W 080°07'0 0.0
2014-Jul-21 01:33N 26°04' W 080°07'0 0.0
2014-Jul-21 00:33N 26°04' W 080°07'0 0.0
2014-Jul-20 23:33N 26°04' W 080°07'3 2.6
2014-Jul-20 22:33N 26°06' W 080°05'4 3.9
2014-Jul-20 21:33N 26°08' W 080°01'3 3.1
2014-Jul-20 20:34N 26°08' W 079°58'8 7.7
2014-Jul-20 19:33N 26°10' W 079°50'1818.2
2014-Jul-20 18:33N 26°16' W 079°31'43 2.5
2014-Jul-20 01:28N 26°31' W 078°46'0 0.0
2014-Jul-20 00:31N 26°31' W 078°46'0 0.0
2014-Jul-19 23:31N 26°31' W 078°46'16 1.0
2014-Jul-19 06:26N 26°15' W 078°44'3 0.8
2014-Jul-19 02:30N 26°18' W 078°44'1 0.5
2014-Jul-19 00:19N 26°19' W 078°43'0 0.5
2014-Jul-18 23:32N 26°19' W 078°43'1 0.8
2014-Jul-18 22:31N 26°20' W 078°44'3 1.5
2014-Jul-18 20:31N 26°22' W 078°45'78015.8
2014-Jul-16 19:00N 18°00' W 068°00'43218.0 090 / 191017.010.8 1.530.028.729.0
2014-Jul-15 19:00N 12°24' W 063°18'   060 / 231015.010.8 0.531.029.729.0
2014-Jul-12 19:00N 11°00' W 062°06'   090 / 231014.0 5.4 1.030.028.729.0
Track history (hours):
 
Tides and Currents Weather Stations Pressure Air Temp Water Temp Dewpoint Dewpoint Depression Visibility Wind Speed Wind Dir Waves Ship Positions

Cap Castillo

Last reported at 2014-Jul-22 19:00 UTC. Time now 2014-Jul-28 06:24 UTC.
Position N 20°36' W 074°30'.

Length 215 m; draft 7.3 m.

Type: Ship. MMSI: 636091558.

Wind from 120 at 21 knots

Waves 1.0 meters (3 feet), 1 second period

Barometer 1016.0 mb
Air temperature 32.0 ° C
Visibility: greater than 10.8 NM
Dewpoint 30.7 ° C
Water temperature 31.0 ° C

Date/timePositionNaut miles runAvg speedWind from/ knotsBaromVisibWave heightAir tempDewpointWater temp
2014-Jul-22 19:00N 20°36' W 074°30'35514.8 120 / 211016.010.8 1.032.030.731.0
2014-Jul-21 19:00N 24°24' W 079°24'8115.0 180 / 161016.0 5.4 0.529.029.029.0
2014-Jul-21 13:33N 25°43' W 079°43'1615.7
2014-Jul-21 12:33N 25°55' W 079°54'1515.2
2014-Jul-21 11:33N 26°06' W 080°07'1 1.3
2014-Jul-21 10:33N 26°04' W 080°07'0 0.0
2014-Jul-21 09:24N 26°04' W 080°07'0 0.0
2014-Jul-21 08:30N 26°04' W 080°07'0 0.0
2014-Jul-21 07:27N 26°04' W 080°07'0 0.0
2014-Jul-21 06:27N 26°04' W 080°07'0 0.0
2014-Jul-21 05:30N 26°04' W 080°07'0 0.0
2014-Jul-21 04:30N 26°04' W 080°07'0 0.0
2014-Jul-21 03:30N 26°04' W 080°07'0 0.0
2014-Jul-21 02:33N 26°04' W 080°07'0 0.0
2014-Jul-21 01:33N 26°04' W 080°07'0 0.0
2014-Jul-21 00:33N 26°04' W 080°07'0 0.0
2014-Jul-20 23:33N 26°04' W 080°07'3 2.6
2014-Jul-20 22:33N 26°06' W 080°05'4 3.9
2014-Jul-20 21:33N 26°08' W 080°01'3 3.1
2014-Jul-20 20:34N 26°08' W 079°58'8 7.7
2014-Jul-20 19:33N 26°10' W 079°50'1818.2
2014-Jul-20 18:33N 26°16' W 079°31'43 2.5
2014-Jul-20 01:28N 26°31' W 078°46'0 0.0
2014-Jul-20 00:31N 26°31' W 078°46'0 0.0
2014-Jul-19 23:31N 26°31' W 078°46'16 1.0
2014-Jul-19 06:26N 26°15' W 078°44'3 0.8
2014-Jul-19 02:30N 26°18' W 078°44'1 0.5
2014-Jul-19 00:19N 26°19' W 078°43'0 0.5
2014-Jul-18 23:32N 26°19' W 078°43'1 0.8
2014-Jul-18 22:31N 26°20' W 078°44'3 1.5
2014-Jul-18 20:31N 26°22' W 078°45'78015.8
2014-Jul-16 19:00N 18°00' W 068°00'43218.0 090 / 191017.010.8 1.530.028.729.0
2014-Jul-15 19:00N 12°24' W 063°18'   060 / 231015.010.8 0.531.029.729.0
2014-Jul-12 19:00N 11°00' W 062°06'   090 / 231014.0 5.4 1.030.028.729.0

Dump ship's entire track history